sensor_id;sensor_type;location;lat;lon;timestamp;P1;durP1;ratioP1;P2;durP2;ratioP2
73382;SDS011;61600;48.126;11.542;2022-11-18T00:02:10;2.42;;;1.25;;
73382;SDS011;61600;48.126;11.542;2022-11-18T00:04:35;2.25;;;0.75;;
73382;SDS011;61600;48.126;11.542;2022-11-18T00:07:01;1.05;;;0.47;;
73382;SDS011;61600;48.126;11.542;2022-11-18T00:09:27;1.33;;;0.47;;
73382;SDS011;61600;48.126;11.542;2022-11-18T00:11:53;1.25;;;0.60;;
73382;SDS011;61600;48.126;11.542;2022-11-18T00:14:37;1.20;;;0.40;;
73382;SDS011;61600;48.126;11.542;2022-11-18T00:17:04;0.47;;;0.40;;
73382;SDS011;61600;48.126;11.542;2022-11-18T00:19:34;2.25;;;0.70;;
73382;SDS011;61600;48.126;11.542;2022-11-18T00:22:01;1.20;;;0.50;;
73382;SDS011;61600;48.126;11.542;2022-11-18T00:24:28;1.10;;;0.57;;
73382;SDS011;61600;48.126;11.542;2022-11-18T00:26:55;3.00;;;0.70;;
73382;SDS011;61600;48.126;11.542;2022-11-18T00:29:23;1.23;;;0.40;;
73382;SDS011;61600;48.126;11.542;2022-11-18T00:31:53;1.15;;;0.60;;
73382;SDS011;61600;48.126;11.542;2022-11-18T00:34:20;1.48;;;0.75;;
73382;SDS011;61600;48.126;11.542;2022-11-18T00:36:46;1.33;;;0.65;;
73382;SDS011;61600;48.126;11.542;2022-11-18T00:39:13;1.60;;;0.75;;
73382;SDS011;61600;48.126;11.542;2022-11-18T00:41:41;3.88;;;0.80;;
73382;SDS011;61600;48.126;11.542;2022-11-18T00:44:27;1.15;;;0.55;;
73382;SDS011;61600;48.126;11.542;2022-11-18T00:46:57;1.65;;;0.80;;
73382;SDS011;61600;48.126;11.542;2022-11-18T00:49:25;1.75;;;0.70;;
73382;SDS011;61600;48.126;11.542;2022-11-18T00:51:55;1.67;;;0.68;;
73382;SDS011;61600;48.126;11.542;2022-11-18T00:54:22;2.55;;;0.70;;
73382;SDS011;61600;48.126;11.542;2022-11-18T00:56:48;3.00;;;0.68;;
73382;SDS011;61600;48.126;11.542;2022-11-18T00:59:16;2.70;;;0.60;;
73382;SDS011;61600;48.126;11.542;2022-11-18T01:01:43;2.78;;;0.70;;
73382;SDS011;61600;48.126;11.542;2022-11-18T01:04:09;1.02;;;0.50;;
73382;SDS011;61600;48.126;11.542;2022-11-18T01:06:35;1.50;;;0.60;;
73382;SDS011;61600;48.126;11.542;2022-11-18T01:09:06;0.77;;;0.50;;
73382;SDS011;61600;48.126;11.542;2022-11-18T01:11:32;2.47;;;0.60;;
73382;SDS011;61600;48.126;11.542;2022-11-18T01:14:17;0.98;;;0.52;;
73382;SDS011;61600;48.126;11.542;2022-11-18T01:16:45;1.33;;;0.70;;
73382;SDS011;61600;48.126;11.542;2022-11-18T01:19:17;1.33;;;0.70;;
73382;SDS011;61600;48.126;11.542;2022-11-18T01:21:46;0.95;;;0.57;;
73382;SDS011;61600;48.126;11.542;2022-11-18T01:24:12;1.15;;;0.60;;
73382;SDS011;61600;48.126;11.542;2022-11-18T01:26:39;1.65;;;0.63;;
73382;SDS011;61600;48.126;11.542;2022-11-18T01:29:06;2.05;;;0.70;;
73382;SDS011;61600;48.126;11.542;2022-11-18T01:31:33;1.08;;;0.50;;
73382;SDS011;61600;48.126;11.542;2022-11-18T01:33:59;0.90;;;0.57;;
73382;SDS011;61600;48.126;11.542;2022-11-18T01:36:26;3.70;;;1.88;;
73382;SDS011;61600;48.126;11.542;2022-11-18T01:38:55;0.85;;;0.50;;
73382;SDS011;61600;48.126;11.542;2022-11-18T01:41:23;2.33;;;0.95;;
73382;SDS011;61600;48.126;11.542;2022-11-18T01:46:17;1.23;;;0.57;;
73382;SDS011;61600;48.126;11.542;2022-11-18T01:48:47;3.00;;;0.60;;
73382;SDS011;61600;48.126;11.542;2022-11-18T01:51:19;0.98;;;0.50;;
73382;SDS011;61600;48.126;11.542;2022-11-18T01:53:52;1.65;;;0.60;;
73382;SDS011;61600;48.126;11.542;2022-11-18T01:56:39;0.85;;;0.50;;
73382;SDS011;61600;48.126;11.542;2022-11-18T01:59:14;1.67;;;0.70;;
73382;SDS011;61600;48.126;11.542;2022-11-18T02:01:49;0.70;;;0.50;;
73382;SDS011;61600;48.126;11.542;2022-11-18T02:04:15;1.83;;;0.57;;
73382;SDS011;61600;48.126;11.542;2022-11-18T02:06:43;4.40;;;0.60;;
73382;SDS011;61600;48.126;11.542;2022-11-18T02:09:12;1.17;;;0.52;;
73382;SDS011;61600;48.126;11.542;2022-11-18T02:11:40;1.45;;;0.50;;
73382;SDS011;61600;48.126;11.542;2022-11-18T02:14:29;1.15;;;0.50;;
73382;SDS011;61600;48.126;11.542;2022-11-18T02:22:07;0.95;;;0.50;;
73382;SDS011;61600;48.126;11.542;2022-11-18T02:24:46;1.90;;;0.80;;
73382;SDS011;61600;48.126;11.542;2022-11-18T02:27:39;2.03;;;0.57;;
73382;SDS011;61600;48.126;11.542;2022-11-18T02:30:29;1.52;;;0.40;;
73382;SDS011;61600;48.126;11.542;2022-11-18T02:33:06;0.93;;;0.40;;
73382;SDS011;61600;48.126;11.542;2022-11-18T02:35:41;2.15;;;0.70;;
73382;SDS011;61600;48.126;11.542;2022-11-18T02:38:10;0.52;;;0.40;;
73382;SDS011;61600;48.126;11.542;2022-11-18T02:40:52;1.15;;;0.50;;
73382;SDS011;61600;48.126;11.542;2022-11-18T02:43:23;1.25;;;0.60;;
73382;SDS011;61600;48.126;11.542;2022-11-18T02:46:01;1.20;;;0.60;;
73382;SDS011;61600;48.126;11.542;2022-11-18T02:48:33;1.48;;;0.50;;
73382;SDS011;61600;48.126;11.542;2022-11-18T02:51:06;0.70;;;0.40;;
73382;SDS011;61600;48.126;11.542;2022-11-18T02:53:35;0.93;;;0.50;;
73382;SDS011;61600;48.126;11.542;2022-11-18T02:56:05;1.95;;;0.38;;
73382;SDS011;61600;48.126;11.542;2022-11-18T02:58:34;1.00;;;0.47;;
73382;SDS011;61600;48.126;11.542;2022-11-18T03:01:02;0.22;;;0.20;;
73382;SDS011;61600;48.126;11.542;2022-11-18T03:03:33;0.35;;;0.20;;
73382;SDS011;61600;48.126;11.542;2022-11-18T03:06:04;1.13;;;0.40;;
73382;SDS011;61600;48.126;11.542;2022-11-18T03:08:38;2.47;;;0.40;;
73382;SDS011;61600;48.126;11.542;2022-11-18T03:14:01;0.40;;;0.30;;
73382;SDS011;61600;48.126;11.542;2022-11-18T03:16:28;0.45;;;0.40;;
73382;SDS011;61600;48.126;11.542;2022-11-18T03:19:04;0.68;;;0.40;;
73382;SDS011;61600;48.126;11.542;2022-11-18T03:21:42;0.55;;;0.30;;
73382;SDS011;61600;48.126;11.542;2022-11-18T03:24:16;0.50;;;0.30;;
73382;SDS011;61600;48.126;11.542;2022-11-18T03:26:50;0.82;;;0.35;;
73382;SDS011;61600;48.126;11.542;2022-11-18T03:29:22;2.22;;;0.30;;
73382;SDS011;61600;48.126;11.542;2022-11-18T03:31:58;0.60;;;0.20;;
73382;SDS011;61600;48.126;11.542;2022-11-18T03:34:35;1.00;;;0.40;;
73382;SDS011;61600;48.126;11.542;2022-11-18T03:37:08;0.60;;;0.40;;
73382;SDS011;61600;48.126;11.542;2022-11-18T03:39:41;1.33;;;0.35;;
73382;SDS011;61600;48.126;11.542;2022-11-18T03:44:56;0.80;;;0.30;;
73382;SDS011;61600;48.126;11.542;2022-11-18T03:47:33;0.75;;;0.40;;
73382;SDS011;61600;48.126;11.542;2022-11-18T03:50:13;0.70;;;0.20;;
73382;SDS011;61600;48.126;11.542;2022-11-18T03:52:43;0.38;;;0.20;;
73382;SDS011;61600;48.126;11.542;2022-11-18T03:55:16;0.80;;;0.28;;
73382;SDS011;61600;48.126;11.542;2022-11-18T03:57:53;1.75;;;0.40;;
73382;SDS011;61600;48.126;11.542;2022-11-18T04:00:24;1.27;;;0.30;;
73382;SDS011;61600;48.126;11.542;2022-11-18T04:02:55;1.02;;;0.45;;
73382;SDS011;61600;48.126;11.542;2022-11-18T04:05:21;0.68;;;0.30;;
73382;SDS011;61600;48.126;11.542;2022-11-18T04:07:55;1.90;;;0.20;;
73382;SDS011;61600;48.126;11.542;2022-11-18T04:15:38;0.38;;;0.20;;
73382;SDS011;61600;48.126;11.542;2022-11-18T04:18:06;0.38;;;0.20;;
73382;SDS011;61600;48.126;11.542;2022-11-18T04:20:34;0.63;;;0.20;;
73382;SDS011;61600;48.126;11.542;2022-11-18T04:23:02;0.55;;;0.30;;
73382;SDS011;61600;48.126;11.542;2022-11-18T04:25:32;0.60;;;0.30;;
73382;SDS011;61600;48.126;11.542;2022-11-18T04:27:58;0.35;;;0.20;;
73382;SDS011;61600;48.126;11.542;2022-11-18T04:30:24;0.20;;;0.10;;
73382;SDS011;61600;48.126;11.542;2022-11-18T04:32:50;0.22;;;0.10;;
73382;SDS011;61600;48.126;11.542;2022-11-18T04:35:16;0.28;;;0.17;;
73382;SDS011;61600;48.126;11.542;2022-11-18T04:37:41;1.45;;;0.40;;
73382;SDS011;61600;48.126;11.542;2022-11-18T04:40:08;0.45;;;0.20;;
73382;SDS011;61600;48.126;11.542;2022-11-18T04:42:34;0.68;;;0.28;;
73382;SDS011;61600;48.126;11.542;2022-11-18T04:45:00;0.35;;;0.20;;
73382;SDS011;61600;48.126;11.542;2022-11-18T04:47:26;1.27;;;0.45;;
73382;SDS011;61600;48.126;11.542;2022-11-18T04:49:52;0.40;;;0.30;;
73382;SDS011;61600;48.126;11.542;2022-11-18T04:52:17;2.03;;;0.63;;
73382;SDS011;61600;48.126;11.542;2022-11-18T04:54:43;0.90;;;0.60;;
73382;SDS011;61600;48.126;11.542;2022-11-18T04:57:09;0.98;;;0.20;;
73382;SDS011;61600;48.126;11.542;2022-11-18T04:59:35;0.32;;;0.20;;
73382;SDS011;61600;48.126;11.542;2022-11-18T05:02:01;1.10;;;0.30;;
73382;SDS011;61600;48.126;11.542;2022-11-18T05:04:28;0.50;;;0.20;;
73382;SDS011;61600;48.126;11.542;2022-11-18T05:06:55;0.65;;;0.32;;
73382;SDS011;61600;48.126;11.542;2022-11-18T05:09:22;0.30;;;0.10;;
73382;SDS011;61600;48.126;11.542;2022-11-18T05:11:47;0.80;;;0.32;;
73382;SDS011;61600;48.126;11.542;2022-11-18T05:14:32;1.38;;;0.40;;
73382;SDS011;61600;48.126;11.542;2022-11-18T05:16:59;0.70;;;0.32;;
73382;SDS011;61600;48.126;11.542;2022-11-18T05:19:25;0.20;;;0.10;;
73382;SDS011;61600;48.126;11.542;2022-11-18T05:21:52;0.25;;;0.20;;
73382;SDS011;61600;48.126;11.542;2022-11-18T05:24:18;0.98;;;0.30;;
73382;SDS011;61600;48.126;11.542;2022-11-18T05:26:44;0.50;;;0.50;;
73382;SDS011;61600;48.126;11.542;2022-11-18T05:29:09;0.00;;;0.00;;
73382;SDS011;61600;48.126;11.542;2022-11-18T05:31:35;0.25;;;0.10;;
73382;SDS011;61600;48.126;11.542;2022-11-18T05:34:01;0.55;;;0.30;;
73382;SDS011;61600;48.126;11.542;2022-11-18T05:36:27;0.00;;;0.00;;
73382;SDS011;61600;48.126;11.542;2022-11-18T05:38:52;0.70;;;0.20;;
73382;SDS011;61600;48.126;11.542;2022-11-18T05:41:18;0.20;;;0.10;;
73382;SDS011;61600;48.126;11.542;2022-11-18T05:44:03;0.32;;;0.30;;
73382;SDS011;61600;48.126;11.542;2022-11-18T05:46:29;0.32;;;0.17;;
73382;SDS011;61600;48.126;11.542;2022-11-18T05:48:55;0.00;;;0.00;;
73382;SDS011;61600;48.126;11.542;2022-11-18T05:51:21;0.57;;;0.10;;
73382;SDS011;61600;48.126;11.542;2022-11-18T05:53:48;0.47;;;0.30;;
73382;SDS011;61600;48.126;11.542;2022-11-18T05:58:52;2.47;;;0.20;;
73382;SDS011;61600;48.126;11.542;2022-11-18T06:01:29;0.63;;;0.13;;
73382;SDS011;61600;48.126;11.542;2022-11-18T06:04:00;0.10;;;0.00;;
73382;SDS011;61600;48.126;11.542;2022-11-18T06:06:33;0.00;;;0.00;;
73382;SDS011;61600;48.126;11.542;2022-11-18T06:09:03;0.00;;;0.00;;
73382;SDS011;61600;48.126;11.542;2022-11-18T06:11:30;1.95;;;0.50;;
73382;SDS011;61600;48.126;11.542;2022-11-18T06:14:09;0.22;;;0.10;;
73382;SDS011;61600;48.126;11.542;2022-11-18T06:16:40;2.40;;;0.20;;
73382;SDS011;61600;48.126;11.542;2022-11-18T06:19:11;0.05;;;0.05;;
73382;SDS011;61600;48.126;11.542;2022-11-18T06:21:37;0.43;;;0.20;;
73382;SDS011;61600;48.126;11.542;2022-11-18T06:24:02;1.00;;;0.30;;
73382;SDS011;61600;48.126;11.542;2022-11-18T06:26:28;0.30;;;0.25;;
73382;SDS011;61600;48.126;11.542;2022-11-18T06:28:54;0.35;;;0.22;;
73382;SDS011;61600;48.126;11.542;2022-11-18T06:31:20;0.60;;;0.22;;
73382;SDS011;61600;48.126;11.542;2022-11-18T06:33:46;0.25;;;0.13;;
73382;SDS011;61600;48.126;11.542;2022-11-18T06:36:12;0.77;;;0.28;;
73382;SDS011;61600;48.126;11.542;2022-11-18T06:38:37;0.20;;;0.10;;
73382;SDS011;61600;48.126;11.542;2022-11-18T06:41:03;1.75;;;0.30;;
73382;SDS011;61600;48.126;11.542;2022-11-18T06:43:29;0.47;;;0.25;;
73382;SDS011;61600;48.126;11.542;2022-11-18T06:46:07;0.17;;;0.10;;
73382;SDS011;61600;48.126;11.542;2022-11-18T06:48:59;2.78;;;1.13;;
73382;SDS011;61600;48.126;11.542;2022-11-18T06:51:26;1.08;;;0.47;;
73382;SDS011;61600;48.126;11.542;2022-11-18T06:53:52;0.60;;;0.30;;
73382;SDS011;61600;48.126;11.542;2022-11-18T06:56:18;1.17;;;0.50;;
73382;SDS011;61600;48.126;11.542;2022-11-18T06:58:57;2.10;;;0.73;;
73382;SDS011;61600;48.126;11.542;2022-11-18T07:01:24;1.30;;;0.30;;
73382;SDS011;61600;48.126;11.542;2022-11-18T07:03:52;3.33;;;0.70;;
73382;SDS011;61600;48.126;11.542;2022-11-18T07:06:20;1.80;;;0.40;;
73382;SDS011;61600;48.126;11.542;2022-11-18T07:08:46;1.08;;;0.28;;
73382;SDS011;61600;48.126;11.542;2022-11-18T07:11:13;1.90;;;0.60;;
73382;SDS011;61600;48.126;11.542;2022-11-18T07:13:41;2.45;;;0.70;;
73382;SDS011;61600;48.126;11.542;2022-11-18T07:16:08;0.65;;;0.32;;
73382;SDS011;61600;48.126;11.542;2022-11-18T07:18:38;1.17;;;0.40;;
73382;SDS011;61600;48.126;11.542;2022-11-18T07:21:12;1.10;;;0.47;;
73382;SDS011;61600;48.126;11.542;2022-11-18T07:23:39;1.30;;;0.60;;
73382;SDS011;61600;48.126;11.542;2022-11-18T07:26:05;2.03;;;0.57;;
73382;SDS011;61600;48.126;11.542;2022-11-18T07:28:31;0.70;;;0.40;;
73382;SDS011;61600;48.126;11.542;2022-11-18T07:31:08;5.40;;;0.45;;
73382;SDS011;61600;48.126;11.542;2022-11-18T07:33:36;1.02;;;0.40;;
73382;SDS011;61600;48.126;11.542;2022-11-18T07:36:05;2.22;;;0.38;;
73382;SDS011;61600;48.126;11.542;2022-11-18T07:38:33;1.88;;;1.15;;
73382;SDS011;61600;48.126;11.542;2022-11-18T07:41:16;1.00;;;0.40;;
73382;SDS011;61600;48.126;11.542;2022-11-18T07:43:45;2.20;;;0.43;;
73382;SDS011;61600;48.126;11.542;2022-11-18T07:48:43;0.60;;;0.40;;
73382;SDS011;61600;48.126;11.542;2022-11-18T07:51:10;0.32;;;0.22;;
73382;SDS011;61600;48.126;11.542;2022-11-18T07:53:38;0.65;;;0.50;;
73382;SDS011;61600;48.126;11.542;2022-11-18T07:58:31;0.35;;;0.20;;
73382;SDS011;61600;48.126;11.542;2022-11-18T08:01:05;3.38;;;0.50;;
73382;SDS011;61600;48.126;11.542;2022-11-18T08:03:35;0.70;;;0.20;;
73382;SDS011;61600;48.126;11.542;2022-11-18T08:06:03;1.05;;;0.47;;
73382;SDS011;61600;48.126;11.542;2022-11-18T08:08:30;0.55;;;0.38;;
73382;SDS011;61600;48.126;11.542;2022-11-18T08:10:57;3.35;;;0.50;;
73382;SDS011;61600;48.126;11.542;2022-11-18T08:13:26;1.85;;;1.20;;
73382;SDS011;61600;48.126;11.542;2022-11-18T08:15:54;2.45;;;0.60;;
73382;SDS011;61600;48.126;11.542;2022-11-18T08:18:24;1.17;;;0.40;;
73382;SDS011;61600;48.126;11.542;2022-11-18T08:20:52;1.38;;;0.55;;
73382;SDS011;61600;48.126;11.542;2022-11-18T08:23:18;3.38;;;0.50;;
73382;SDS011;61600;48.126;11.542;2022-11-18T08:25:45;2.35;;;0.73;;
73382;SDS011;61600;48.126;11.542;2022-11-18T08:28:12;0.63;;;0.50;;
73382;SDS011;61600;48.126;11.542;2022-11-18T08:30:39;0.30;;;0.20;;
73382;SDS011;61600;48.126;11.542;2022-11-18T08:33:05;3.38;;;0.80;;
73382;SDS011;61600;48.126;11.542;2022-11-18T08:35:32;2.83;;;0.98;;
73382;SDS011;61600;48.126;11.542;2022-11-18T08:37:58;3.72;;;0.90;;
73382;SDS011;61600;48.126;11.542;2022-11-18T08:40:24;0.43;;;0.32;;
73382;SDS011;61600;48.126;11.542;2022-11-18T08:42:51;1.40;;;0.73;;
73382;SDS011;61600;48.126;11.542;2022-11-18T08:47:44;0.55;;;0.50;;
73382;SDS011;61600;48.126;11.542;2022-11-18T08:50:12;1.15;;;0.47;;
73382;SDS011;61600;48.126;11.542;2022-11-18T08:52:38;1.05;;;0.50;;
73382;SDS011;61600;48.126;11.542;2022-11-18T08:55:04;1.83;;;0.77;;
73382;SDS011;61600;48.126;11.542;2022-11-18T08:57:30;1.13;;;0.60;;
73382;SDS011;61600;48.126;11.542;2022-11-18T08:59:56;1.50;;;0.70;;
73382;SDS011;61600;48.126;11.542;2022-11-18T09:02:22;4.07;;;0.60;;
73382;SDS011;61600;48.126;11.542;2022-11-18T09:04:50;4.68;;;0.75;;
73382;SDS011;61600;48.126;11.542;2022-11-18T09:07:17;1.88;;;0.80;;
73382;SDS011;61600;48.126;11.542;2022-11-18T09:09:44;0.95;;;0.60;;
73382;SDS011;61600;48.126;11.542;2022-11-18T09:12:12;1.23;;;0.50;;
73382;SDS011;61600;48.126;11.542;2022-11-18T09:14:45;0.52;;;0.40;;
73382;SDS011;61600;48.126;11.542;2022-11-18T09:17:12;0.60;;;0.40;;
73382;SDS011;61600;48.126;11.542;2022-11-18T09:19:39;2.17;;;0.70;;
73382;SDS011;61600;48.126;11.542;2022-11-18T09:22:06;1.25;;;0.45;;
73382;SDS011;61600;48.126;11.542;2022-11-18T09:24:32;3.30;;;0.60;;
73382;SDS011;61600;48.126;11.542;2022-11-18T09:29:29;1.67;;;0.80;;
73382;SDS011;61600;48.126;11.542;2022-11-18T09:31:56;0.82;;;0.45;;
73382;SDS011;61600;48.126;11.542;2022-11-18T09:34:23;0.85;;;0.40;;
73382;SDS011;61600;48.126;11.542;2022-11-18T09:36:49;3.65;;;1.10;;
73382;SDS011;61600;48.126;11.542;2022-11-18T09:39:14;2.45;;;1.00;;
73382;SDS011;61600;48.126;11.542;2022-11-18T09:41:43;2.35;;;1.10;;
73382;SDS011;61600;48.126;11.542;2022-11-18T09:49:53;3.90;;;1.80;;
73382;SDS011;61600;48.126;11.542;2022-11-18T09:52:23;1.08;;;0.63;;
73382;SDS011;61600;48.126;11.542;2022-11-18T09:54:52;0.88;;;0.50;;
73382;SDS011;61600;48.126;11.542;2022-11-18T09:57:20;2.28;;;0.90;;
73382;SDS011;61600;48.126;11.542;2022-11-18T09:59:49;2.58;;;0.60;;
73382;SDS011;61600;48.126;11.542;2022-11-18T10:05:06;2.58;;;0.70;;
73382;SDS011;61600;48.126;11.542;2022-11-18T10:07:53;1.90;;;0.50;;
73382;SDS011;61600;48.126;11.542;2022-11-18T10:14:20;2.30;;;0.82;;
73382;SDS011;61600;48.126;11.542;2022-11-18T10:17:01;2.42;;;0.60;;
73382;SDS011;61600;48.126;11.542;2022-11-18T10:22:25;0.93;;;0.40;;
73382;SDS011;61600;48.126;11.542;2022-11-18T10:24:55;1.02;;;0.40;;
73382;SDS011;61600;48.126;11.542;2022-11-18T10:29:54;1.45;;;0.70;;
73382;SDS011;61600;48.126;11.542;2022-11-18T10:32:22;0.45;;;0.17;;
73382;SDS011;61600;48.126;11.542;2022-11-18T10:34:52;1.05;;;0.43;;
73382;SDS011;61600;48.126;11.542;2022-11-18T10:37:29;2.85;;;1.05;;
73382;SDS011;61600;48.126;11.542;2022-11-18T10:39:58;3.25;;;1.20;;
73382;SDS011;61600;48.126;11.542;2022-11-18T10:42:42;8.23;;;1.33;;
73382;SDS011;61600;48.126;11.542;2022-11-18T10:50:35;1.02;;;0.50;;
73382;SDS011;61600;48.126;11.542;2022-11-18T10:53:03;2.55;;;0.55;;
73382;SDS011;61600;48.126;11.542;2022-11-18T10:55:30;2.47;;;0.77;;
73382;SDS011;61600;48.126;11.542;2022-11-18T10:58:02;2.05;;;0.70;;
73382;SDS011;61600;48.126;11.542;2022-11-18T11:03:14;2.47;;;0.70;;
73382;SDS011;61600;48.126;11.542;2022-11-18T11:08:50;2.95;;;0.90;;
73382;SDS011;61600;48.126;11.542;2022-11-18T11:14:19;2.72;;;0.82;;
73382;SDS011;61600;48.126;11.542;2022-11-18T11:17:13;1.50;;;0.73;;
73382;SDS011;61600;48.126;11.542;2022-11-18T11:22:42;4.53;;;0.73;;
73382;SDS011;61600;48.126;11.542;2022-11-18T11:25:12;2.45;;;0.75;;
73382;SDS011;61600;48.126;11.542;2022-11-18T11:27:42;1.10;;;0.60;;
73382;SDS011;61600;48.126;11.542;2022-11-18T11:30:20;1.95;;;0.55;;
73382;SDS011;61600;48.126;11.542;2022-11-18T11:56:34;1.65;;;0.77;;
73382;SDS011;61600;48.126;11.542;2022-11-18T12:07:57;1.88;;;0.57;;
73382;SDS011;61600;48.126;11.542;2022-11-18T12:10:37;1.20;;;0.50;;
73382;SDS011;61600;48.126;11.542;2022-11-18T12:27:02;1.95;;;0.60;;
73382;SDS011;61600;48.126;11.542;2022-11-18T12:32:24;2.38;;;0.88;;
73382;SDS011;61600;48.126;11.542;2022-11-18T12:35:00;2.40;;;0.65;;
73382;SDS011;61600;48.126;11.542;2022-11-18T12:42:32;0.40;;;0.28;;
73382;SDS011;61600;48.126;11.542;2022-11-18T12:48:02;2.40;;;0.90;;
73382;SDS011;61600;48.126;11.542;2022-11-18T12:50:46;1.08;;;0.52;;
73382;SDS011;61600;48.126;11.542;2022-11-18T12:53:34;0.88;;;0.68;;
73382;SDS011;61600;48.126;11.542;2022-11-18T12:56:08;1.70;;;0.80;;
73382;SDS011;61600;48.126;11.542;2022-11-18T12:58:44;0.95;;;0.50;;
73382;SDS011;61600;48.126;11.542;2022-11-18T13:01:15;1.02;;;0.47;;
73382;SDS011;61600;48.126;11.542;2022-11-18T13:03:44;0.73;;;0.32;;
73382;SDS011;61600;48.126;11.542;2022-11-18T13:06:20;0.45;;;0.30;;
73382;SDS011;61600;48.126;11.542;2022-11-18T13:08:56;1.65;;;0.65;;
73382;SDS011;61600;48.126;11.542;2022-11-18T13:11:25;3.55;;;0.90;;
73382;SDS011;61600;48.126;11.542;2022-11-18T13:17:02;2.03;;;0.90;;
73382;SDS011;61600;48.126;11.542;2022-11-18T13:20:24;1.90;;;0.98;;
73382;SDS011;61600;48.126;11.542;2022-11-18T13:22:56;1.92;;;0.80;;
73382;SDS011;61600;48.126;11.542;2022-11-18T13:25:42;2.50;;;1.23;;
73382;SDS011;61600;48.126;11.542;2022-11-18T13:28:34;1.55;;;0.85;;
73382;SDS011;61600;48.126;11.542;2022-11-18T13:31:03;1.85;;;0.80;;
73382;SDS011;61600;48.126;11.542;2022-11-18T13:33:34;0.90;;;0.70;;
73382;SDS011;61600;48.126;11.542;2022-11-18T13:36:00;1.25;;;0.60;;
73382;SDS011;61600;48.126;11.542;2022-11-18T13:38:26;1.83;;;0.80;;
73382;SDS011;61600;48.126;11.542;2022-11-18T13:40:52;2.45;;;1.10;;
73382;SDS011;61600;48.126;11.542;2022-11-18T13:46:06;2.90;;;0.90;;
73382;SDS011;61600;48.126;11.542;2022-11-18T13:48:41;1.80;;;1.00;;
73382;SDS011;61600;48.126;11.542;2022-11-18T13:51:12;1.83;;;1.05;;
73382;SDS011;61600;48.126;11.542;2022-11-18T13:53:38;3.45;;;1.77;;
73382;SDS011;61600;48.126;11.542;2022-11-18T14:01:18;3.22;;;1.35;;
73382;SDS011;61600;48.126;11.542;2022-11-18T14:06:33;1.88;;;1.20;;
73382;SDS011;61600;48.126;11.542;2022-11-18T14:11:36;2.38;;;1.30;;
73382;SDS011;61600;48.126;11.542;2022-11-18T14:14:03;3.28;;;1.30;;
73382;SDS011;61600;48.126;11.542;2022-11-18T14:16:34;13.40;;;5.35;;
73382;SDS011;61600;48.126;11.542;2022-11-18T14:19:01;3.05;;;1.30;;
73382;SDS011;61600;48.126;11.542;2022-11-18T14:21:28;2.80;;;1.40;;
73382;SDS011;61600;48.126;11.542;2022-11-18T14:23:59;3.08;;;1.50;;
73382;SDS011;61600;48.126;11.542;2022-11-18T14:26:26;2.85;;;1.50;;
73382;SDS011;61600;48.126;11.542;2022-11-18T14:28:54;3.22;;;1.40;;
73382;SDS011;61600;48.126;11.542;2022-11-18T14:31:25;4.60;;;2.40;;
73382;SDS011;61600;48.126;11.542;2022-11-18T14:36:36;2.58;;;1.23;;
73382;SDS011;61600;48.126;11.542;2022-11-18T14:39:02;5.85;;;1.83;;
73382;SDS011;61600;48.126;11.542;2022-11-18T14:41:53;3.70;;;1.85;;
73382;SDS011;61600;48.126;11.542;2022-11-18T14:44:20;4.00;;;1.75;;
73382;SDS011;61600;48.126;11.542;2022-11-18T14:46:51;7.22;;;2.30;;
73382;SDS011;61600;48.126;11.542;2022-11-18T14:49:23;2.55;;;1.50;;
73382;SDS011;61600;48.126;11.542;2022-11-18T14:51:51;8.00;;;2.83;;
73382;SDS011;61600;48.126;11.542;2022-11-18T14:54:18;0.98;;;0.50;;
73382;SDS011;61600;48.126;11.542;2022-11-18T14:56:46;2.83;;;1.27;;
73382;SDS011;61600;48.126;11.542;2022-11-18T14:59:14;4.78;;;1.70;;
73382;SDS011;61600;48.126;11.542;2022-11-18T15:01:41;2.28;;;1.40;;
73382;SDS011;61600;48.126;11.542;2022-11-18T15:04:08;2.53;;;1.20;;
73382;SDS011;61600;48.126;11.542;2022-11-18T15:06:33;2.63;;;1.20;;
73382;SDS011;61600;48.126;11.542;2022-11-18T15:08:59;2.50;;;0.88;;
73382;SDS011;61600;48.126;11.542;2022-11-18T15:11:25;2.75;;;1.02;;
73382;SDS011;61600;48.126;11.542;2022-11-18T15:13:51;2.80;;;1.00;;
73382;SDS011;61600;48.126;11.542;2022-11-18T15:16:18;1.55;;;0.88;;
73382;SDS011;61600;48.126;11.542;2022-11-18T15:18:46;1.77;;;0.77;;
73382;SDS011;61600;48.126;11.542;2022-11-18T15:21:14;1.65;;;0.65;;
73382;SDS011;61600;48.126;11.542;2022-11-18T15:23:40;2.13;;;0.70;;
73382;SDS011;61600;48.126;11.542;2022-11-18T15:26:19;3.20;;;1.30;;
73382;SDS011;61600;48.126;11.542;2022-11-18T15:29:00;1.80;;;0.80;;
73382;SDS011;61600;48.126;11.542;2022-11-18T15:31:25;1.80;;;0.85;;
73382;SDS011;61600;48.126;11.542;2022-11-18T15:33:51;1.73;;;1.02;;
73382;SDS011;61600;48.126;11.542;2022-11-18T15:36:21;2.88;;;0.50;;
73382;SDS011;61600;48.126;11.542;2022-11-18T15:38:48;1.23;;;0.77;;
73382;SDS011;61600;48.126;11.542;2022-11-18T15:41:15;0.43;;;0.32;;
73382;SDS011;61600;48.126;11.542;2022-11-18T15:43:49;0.65;;;0.50;;
73382;SDS011;61600;48.126;11.542;2022-11-18T15:46:16;9.23;;;1.13;;
73382;SDS011;61600;48.126;11.542;2022-11-18T15:48:46;1.58;;;0.70;;
73382;SDS011;61600;48.126;11.542;2022-11-18T15:51:12;2.15;;;0.98;;
73382;SDS011;61600;48.126;11.542;2022-11-18T15:53:39;3.22;;;1.02;;
73382;SDS011;61600;48.126;11.542;2022-11-18T16:01:32;2.13;;;1.00;;
73382;SDS011;61600;48.126;11.542;2022-11-18T16:04:09;2.97;;;1.25;;
73382;SDS011;61600;48.126;11.542;2022-11-18T16:06:36;3.20;;;1.08;;
73382;SDS011;61600;48.126;11.542;2022-11-18T16:09:03;2.22;;;1.10;;
73382;SDS011;61600;48.126;11.542;2022-11-18T16:11:30;1.95;;;1.10;;
73382;SDS011;61600;48.126;11.542;2022-11-18T16:14:16;2.25;;;1.05;;
73382;SDS011;61600;48.126;11.542;2022-11-18T16:16:43;3.70;;;1.00;;
73382;SDS011;61600;48.126;11.542;2022-11-18T16:19:11;5.35;;;1.90;;
73382;SDS011;61600;48.126;11.542;2022-11-18T16:21:39;3.47;;;1.60;;
73382;SDS011;61600;48.126;11.542;2022-11-18T16:24:07;5.50;;;2.53;;
73382;SDS011;61600;48.126;11.542;2022-11-18T16:26:36;4.63;;;1.85;;
73382;SDS011;61600;48.126;11.542;2022-11-18T16:29:02;2.53;;;1.50;;
73382;SDS011;61600;48.126;11.542;2022-11-18T16:31:28;1.55;;;1.17;;
73382;SDS011;61600;48.126;11.542;2022-11-18T16:36:33;1.95;;;1.20;;
73382;SDS011;61600;48.126;11.542;2022-11-18T16:41:30;2.42;;;1.38;;
73382;SDS011;61600;48.126;11.542;2022-11-18T16:43:56;2.28;;;1.38;;
73382;SDS011;61600;48.126;11.542;2022-11-18T16:46:23;5.97;;;1.25;;
73382;SDS011;61600;48.126;11.542;2022-11-18T16:48:49;5.18;;;1.25;;
73382;SDS011;61600;48.126;11.542;2022-11-18T16:53:41;2.53;;;1.13;;
73382;SDS011;61600;48.126;11.542;2022-11-18T16:56:07;4.60;;;1.70;;
73382;SDS011;61600;48.126;11.542;2022-11-18T16:58:33;3.22;;;1.55;;
73382;SDS011;61600;48.126;11.542;2022-11-18T17:00:59;3.13;;;1.67;;
73382;SDS011;61600;48.126;11.542;2022-11-18T17:03:33;5.40;;;1.60;;
73382;SDS011;61600;48.126;11.542;2022-11-18T17:05:59;3.17;;;1.60;;
73382;SDS011;61600;48.126;11.542;2022-11-18T17:08:25;2.88;;;1.58;;
73382;SDS011;61600;48.126;11.542;2022-11-18T17:10:52;5.60;;;1.70;;
73382;SDS011;61600;48.126;11.542;2022-11-18T17:13:18;2.67;;;1.38;;
73382;SDS011;61600;48.126;11.542;2022-11-18T17:15:44;3.72;;;1.48;;
73382;SDS011;61600;48.126;11.542;2022-11-18T17:18:09;7.25;;;2.58;;
73382;SDS011;61600;48.126;11.542;2022-11-18T17:20:35;4.55;;;1.48;;
73382;SDS011;61600;48.126;11.542;2022-11-18T17:23:01;6.65;;;1.92;;
73382;SDS011;61600;48.126;11.542;2022-11-18T17:25:27;2.65;;;1.23;;